Het weer

FemaleMale
10 Vragen - Ontwikkeld door:
- Ontwikkeld op: - 69 keer opgeroepen

Deze quiz gaat over het weer voor het dronebewijs A2

  • 1
    Wat is convectie?
  • 2
    Wat is divergentie?
  • 3
    Wat betekent diurnal variation?
  • 4
    Hoeveel meter is 1 voet?
  • 5
    Wat is de gemiddelde luchtdruk (zee niveau)?
  • 6
    Het is 13 oktober 130730Z, wat is de Nederlandse tijd?
  • 7
    METAR EHRD 170855Z AUTO VRB02KT 9999 FEW011 BKN033 17/15 Q1019 NOSIG= Wat is de luchtdruk?
  • 8
    Wat is de datum en tijd 170855Z?
  • 9
    METAR EHRD 170855Z AUTO VRB02KT 9999 FEW011 BKN033 17/15 Q1019 NOSIG=
    Wat is de temperatuur aan de grond?
  • 10
    METAR EHRD 170855Z AUTO VRB02KT 9999 FEW011 BKN033 17/15 Q1019 NOSIG=
    Wat betekent FEW011?

commentaren (0)

autorenew